Time;durP1;ratioP1;P1;durP2;ratioP2;P2;SDS_P1;SDS_P2;PMS_P1;PMS_P2;Temp;Humidity;BMP_temperature;BMP_pressure;BME280_temperature;BME280_humidity;BME280_pressure;Samples;Min_cycle;Max_cycle;Signal;HPM_P1;HPM_P2
2023/04/09 00:00:32;;;;;;;28.75;21.98;;;;;;;6.99;65.98;94007.22;5006561;28;20028;-76
2023/04/09 00:02:57;;;;;;;29.42;22.98;;;;;;;7.04;66.33;94028.31;5004615;28;20034;-76
2023/04/09 00:05:23;;;;;;;32.97;23.30;;;;;;;7.05;65.97;94013.97;5004826;28;20038;-77
2023/04/09 00:07:48;;;;;;;31.65;22.90;;;;;;;6.89;66.04;94025.84;5008454;28;20033;-76
2023/04/09 00:10:14;;;;;;;31.17;23.10;;;;;;;7.05;65.57;94034.34;5011299;28;20073;-76
2023/04/09 00:12:39;;;;;;;26.25;21.17;;;;;;;7.23;65.09;94033.59;5009277;28;20084;-76
2023/04/09 00:15:05;;;;;;;29.85;23.00;;;;;;;7.05;65.76;94021.13;5010909;28;20080;-77
2023/04/09 00:17:31;;;;;;;27.17;21.35;;;;;;;7.04;64.84;94001.84;5008569;28;20044;-76
2023/04/09 00:19:56;;;;;;;26.75;20.38;;;;;;;6.92;66.04;94040.34;5010930;28;20073;-76
2023/04/09 00:22:21;;;;;;;27.48;21.55;;;;;;;6.43;68.85;94041.47;5008327;28;20135;-76
2023/04/09 00:24:47;;;;;;;27.20;21.17;;;;;;;6.66;67.67;94024.78;5012032;28;20032;-77
2023/04/09 00:27:12;;;;;;;28.40;21.05;;;;;;;6.82;67.53;94039.41;5007963;28;20057;-76
2023/04/09 00:29:37;;;;;;;30.42;20.38;;;;;;;6.99;66.62;94035.50;5007557;28;20038;-76
2023/04/09 00:32:03;;;;;;;29.45;21.10;;;;;;;7.14;66.02;94038.72;5009464;28;20515;-77
2023/04/09 00:34:28;;;;;;;26.08;20.50;;;;;;;7.36;64.80;94043.44;5010261;28;20488;-76
2023/04/09 00:36:54;;;;;;;31.00;20.33;;;;;;;7.28;64.88;94025.59;5007890;28;20128;-78
2023/04/09 00:39:19;;;;;;;27.50;20.90;;;;;;;7.24;65.50;94030.63;5010096;28;20077;-76
2023/04/09 00:41:44;;;;;;;26.85;20.98;;;;;;;7.48;65.05;94046.47;5007509;28;20076;-78
2023/04/09 00:44:10;;;;;;;33.92;20.95;;;;;;;7.48;64.45;94038.50;5009750;28;20034;-76
2023/04/09 00:46:35;;;;;;;28.27;22.02;;;;;;;7.45;64.62;94035.63;5008602;28;20037;-76
2023/04/09 00:49:01;;;;;;;29.38;19.75;;;;;;;7.33;65.03;94040.59;5009185;28;20037;-76
2023/04/09 00:51:27;;;;;;;26.73;20.05;;;;;;;6.74;66.68;94032.13;5010299;28;20369;-76
2023/04/09 00:53:53;;;;;;;26.95;20.42;;;;;;;7.07;66.17;94030.34;5008309;28;20045;-78
2023/04/09 00:56:21;;;;;;;27.33;19.83;;;;;;;7.18;65.91;94050.31;5007970;28;20132;-76
2023/04/09 00:58:46;;;;;;;29.30;21.00;;;;;;;7.09;65.94;94032.72;5006190;28;20033;-76
2023/04/09 01:01:12;;;;;;;21.13;18.52;;;;;;;7.02;66.23;94021.72;5006646;28;20497;-76
2023/04/09 01:03:38;;;;;;;26.13;19.95;;;;;;;7.24;65.96;94045.72;5007427;28;20972;-77
2023/04/09 01:06:25;;;;;;;22.45;18.10;;;;;;;7.13;66.04;94039.03;5006681;28;20069;-77
2023/04/09 01:09:14;;;;;;;22.75;18.67;;;;;;;7.21;65.70;94054.25;5004643;28;20103;-76
2023/04/09 01:11:45;;;;;;;25.38;18.35;;;;;;;7.22;66.13;94053.16;5007311;28;20065;-76
2023/04/09 01:14:26;;;;;;;21.90;17.10;;;;;;;7.32;65.51;94053.03;5007722;28;20086;-77
2023/04/09 01:17:13;;;;;;;23.70;17.65;;;;;;;7.28;65.04;94052.81;5005940;28;20117;-76
2023/04/09 01:19:52;;;;;;;21.48;17.35;;;;;;;7.19;65.18;94040.53;5011251;28;20521;-77
2023/04/09 01:23:05;;;;;;;19.17;15.82;;;;;;;7.18;65.40;94041.59;5009142;28;20060;-76
2023/04/09 01:26:21;;;;;;;23.67;17.77;;;;;;;7.52;64.27;94055.38;5009146;28;20509;-76
2023/04/09 01:28:51;;;;;;;20.63;16.42;;;;;;;7.28;64.26;94036.16;5011946;28;20069;-76
2023/04/09 01:31:20;;;;;;;21.27;16.95;;;;;;;7.18;64.70;94031.00;5015835;28;20052;-76
2023/04/09 01:33:46;;;;;;;23.05;17.38;;;;;;;7.30;64.98;94060.47;5007843;28;20514;-77
2023/04/09 01:36:13;;;;;;;23.05;16.75;;;;;;;7.33;64.86;94057.25;5009649;28;20030;-76
2023/04/09 01:38:41;;;;;;;21.08;16.98;;;;;;;7.20;64.87;94050.00;5006991;28;20153;-76
2023/04/09 01:41:09;;;;;;;20.85;15.88;;;;;;;6.97;65.32;94019.13;5005831;28;20152;-77
2023/04/09 01:43:36;;;;;;;21.50;16.75;;;;;;;7.28;64.70;94059.97;5008421;28;20224;-76
2023/04/09 01:46:02;;;;;;;23.83;17.65;;;;;;;7.07;65.43;94040.94;5007819;28;20084;-75
2023/04/09 01:48:29;;;;;;;23.88;17.33;;;;;;;7.15;65.07;94052.72;5007649;28;20486;-78
2023/04/09 01:50:56;;;;;;;23.55;17.65;;;;;;;7.14;65.52;94062.53;5001508;28;20208;-77
2023/04/09 01:53:22;;;;;;;21.45;17.88;;;;;;;7.17;65.26;94054.03;5006911;28;20303;-76
2023/04/09 01:55:47;;;;;;;22.85;18.05;;;;;;;7.37;63.34;94050.31;5007679;28;20038;-77
2023/04/09 01:58:13;;;;;;;21.50;17.33;;;;;;;7.31;64.01;94056.75;5005499;28;20441;-77
2023/04/09 02:00:43;;;;;;;23.20;17.33;;;;;;;7.12;64.18;94051.44;5008867;28;20022;-76
2023/04/09 02:03:23;;;;;;;23.67;15.98;;;;;;;7.19;64.41;94061.69;5006461;28;20184;-76
2023/04/09 02:06:13;;;;;;;21.05;16.20;;;;;;;6.80;64.92;94014.31;5006537;28;20120;-76
2023/04/09 02:08:43;;;;;;;21.63;17.60;;;;;;;6.92;64.86;94038.50;5005227;28;20045;-76
2023/04/09 02:11:09;;;;;;;24.75;17.90;;;;;;;6.87;65.46;94054.41;5013735;28;20113;-76
2023/04/09 02:13:36;;;;;;;26.00;17.77;;;;;;;6.80;65.57;94043.38;5008158;28;20086;-76
2023/04/09 02:16:03;;;;;;;23.83;17.77;;;;;;;6.71;66.06;94053.03;5014569;28;20025;-76
2023/04/09 02:18:29;;;;;;;19.20;15.50;;;;;;;7.10;64.41;94052.78;5007412;28;20017;-76
2023/04/09 02:20:56;;;;;;;21.60;15.85;;;;;;;7.16;63.66;94057.75;5006452;28;20416;-76
2023/04/09 02:23:22;;;;;;;21.80;17.77;;;;;;;6.95;64.40;94053.00;5005583;28;20566;-76
2023/04/09 02:25:48;;;;;;;20.83;16.40;;;;;;;6.85;64.67;94033.53;5007961;28;20030;-77
2023/04/09 02:28:13;;;;;;;20.25;16.73;;;;;;;6.94;64.19;94040.88;5007044;28;20029;-76
2023/04/09 02:30:39;;;;;;;29.20;20.85;;;;;;;6.84;63.76;94042.56;5006727;28;20235;-77
2023/04/09 02:33:05;;;;;;;28.70;20.05;;;;;;;6.95;63.59;94055.63;5007051;28;20041;-77
2023/04/09 02:35:30;;;;;;;21.33;16.90;;;;;;;6.92;63.26;94038.50;5004233;28;20080;-75
2023/04/09 02:37:55;;;;;;;18.55;14.15;;;;;;;6.91;63.18;94049.34;5006366;28;20041;-76
2023/04/09 02:40:21;;;;;;;20.83;14.85;;;;;;;6.71;62.85;94016.81;5014048;28;20038;-76
2023/04/09 02:42:46;;;;;;;19.10;14.40;;;;;;;6.70;63.68;94033.72;5006806;28;20112;-76
2023/04/09 02:45:12;;;;;;;17.38;13.73;;;;;;;6.47;63.49;93994.13;5004463;28;20607;-77
2023/04/09 02:47:37;;;;;;;19.60;13.57;;;;;;;6.72;62.84;94023.66;5005666;28;20030;-77
2023/04/09 02:50:03;;;;;;;17.55;13.20;;;;;;;6.84;62.67;94047.84;5005296;28;20123;-76
2023/04/09 02:52:29;;;;;;;15.23;12.13;;;;;;;6.86;62.71;94048.34;5006050;28;20552;-76
2023/04/09 02:54:54;;;;;;;17.33;12.73;;;;;;;6.79;62.43;94034.69;5004875;28;20025;-76
2023/04/09 02:57:19;;;;;;;18.08;13.98;;;;;;;6.61;62.62;94014.28;5006908;28;20106;-75
2023/04/09 02:59:45;;;;;;;16.20;12.27;;;;;;;6.67;62.71;94021.09;5005926;28;20029;-75
2023/04/09 03:02:11;;;;;;;16.33;13.52;;;;;;;6.54;62.64;94011.22;5006403;28;20042;-76
2023/04/09 03:04:37;;;;;;;15.98;12.70;;;;;;;6.57;62.38;94021.22;5007328;28;20033;-75
2023/04/09 03:07:02;;;;;;;15.60;13.05;;;;;;;6.62;62.08;94026.44;5005633;28;20096;-75
2023/04/09 03:09:29;;;;;;;18.00;11.98;;;;;;;6.52;61.73;94023.13;5007285;28;20049;-75
2023/04/09 03:11:56;;;;;;;16.40;12.48;;;;;;;6.45;62.19;94014.75;5005308;28;20048;-75
2023/04/09 03:14:22;;;;;;;15.85;12.30;;;;;;;6.46;62.41;94035.59;5007724;28;20038;-76
2023/04/09 03:16:48;;;;;;;17.45;13.55;;;;;;;6.51;61.99;94037.41;5006259;28;20026;-74
2023/04/09 03:19:13;;;;;;;15.68;13.05;;;;;;;6.34;62.62;94019.38;5006098;28;20025;-75
2023/04/09 03:21:38;;;;;;;19.10;14.35;;;;;;;6.21;62.48;94015.56;5004537;28;20476;-75
2023/04/09 03:24:04;;;;;;;16.45;13.15;;;;;;;6.33;62.35;94036.28;5004946;28;20045;-75
2023/04/09 03:26:34;;;;;;;16.45;12.38;;;;;;;6.19;62.32;94009.75;5010045;28;20030;-76
2023/04/09 03:29:00;;;;;;;18.02;13.60;;;;;;;6.38;62.32;94033.59;5007536;28;20549;-75
2023/04/09 03:31:26;;;;;;;15.65;12.60;;;;;;;6.17;62.49;94013.72;5005009;28;20041;-75
2023/04/09 03:33:51;;;;;;;15.48;12.18;;;;;;;6.13;62.41;94020.63;5006838;28;20084;-76
2023/04/09 03:36:16;;;;;;;17.02;14.10;;;;;;;6.18;62.59;94026.66;5005884;28;20050;-76
2023/04/09 03:38:42;;;;;;;17.13;12.43;;;;;;;6.15;62.29;94015.84;5003344;28;20089;-75
2023/04/09 03:41:07;;;;;;;15.75;12.00;;;;;;;6.10;61.84;94011.41;5009645;28;20056;-75
2023/04/09 03:43:32;;;;;;;15.55;11.55;;;;;;;6.08;62.32;94024.09;5009812;28;20113;-75
2023/04/09 03:45:58;;;;;;;15.23;11.80;;;;;;;6.02;62.05;94017.28;5008441;28;20030;-75
2023/04/09 03:48:23;;;;;;;14.27;11.85;;;;;;;6.21;61.79;94039.31;5010153;28;20028;-75
2023/04/09 03:50:49;;;;;;;15.23;11.88;;;;;;;6.08;61.56;94033.88;5007397;28;20041;-76
2023/04/09 03:53:14;;;;;;;15.45;12.65;;;;;;;6.05;61.82;94032.59;5009342;28;20037;-76
2023/04/09 03:55:39;;;;;;;14.20;11.73;;;;;;;6.10;61.90;94052.88;5008642;28;20037;-76
2023/04/09 03:58:05;;;;;;;15.32;12.68;;;;;;;5.92;61.56;94010.25;5010216;28;20770;-75
2023/04/09 04:00:30;;;;;;;17.95;13.13;;;;;;;5.98;61.71;94038.19;5007135;28;20033;-75
2023/04/09 04:02:56;;;;;;;18.00;11.50;;;;;;;6.00;61.59;94032.63;5009467;28;20037;-75
2023/04/09 04:05:24;;;;;;;17.60;12.10;;;;;;;5.96;61.45;94032.41;5007264;28;20123;-75
2023/04/09 04:07:49;;;;;;;14.90;12.40;;;;;;;5.99;61.20;94031.06;5010353;28;20043;-75
2023/04/09 04:10:14;;;;;;;15.70;12.48;;;;;;;5.96;61.71;94048.25;5007298;28;20046;-76
2023/04/09 04:12:40;;;;;;;16.58;13.10;;;;;;;5.96;61.95;94047.47;5009682;28;20033;-75
2023/04/09 04:15:06;;;;;;;14.50;11.90;;;;;;;5.65;62.00;94009.19;5009056;28;20149;-76
2023/04/09 04:17:31;;;;;;;14.55;11.10;;;;;;;5.83;62.12;94042.81;5006971;28;20026;-75
2023/04/09 04:19:56;;;;;;;16.38;12.63;;;;;;;5.77;62.64;94038.66;5007855;28;20088;-75
2023/04/09 04:22:23;;;;;;;14.43;11.68;;;;;;;5.75;62.43;94040.78;5009292;28;20049;-75
2023/04/09 04:24:48;;;;;;;14.73;11.93;;;;;;;5.96;62.72;94050.09;5016169;28;20017;-74
2023/04/09 04:27:14;;;;;;;16.33;12.30;;;;;;;5.89;62.68;94039.84;5009686;28;20495;-76
2023/04/09 04:29:39;;;;;;;14.82;11.75;;;;;;;5.89;62.74;94044.34;5006734;28;20041;-75
2023/04/09 04:32:05;;;;;;;16.70;11.57;;;;;;;5.93;62.73;94054.06;5008908;28;20131;-76
2023/04/09 04:34:30;;;;;;;16.25;13.30;;;;;;;5.93;62.80;94043.50;5009257;28;20030;-75
2023/04/09 04:36:55;;;;;;;16.70;13.82;;;;;;;5.89;62.92;94026.66;5006645;28;20042;-75
2023/04/09 04:39:21;;;;;;;14.70;12.52;;;;;;;6.02;62.95;94041.84;5008765;28;20511;-75
2023/04/09 04:41:46;;;;;;;21.33;16.23;;;;;;;5.88;63.58;94038.28;5005569;28;20076;-75
2023/04/09 04:44:12;;;;;;;19.55;14.00;;;;;;;6.00;63.76;94043.97;5008640;28;20096;-76
2023/04/09 04:46:37;;;;;;;18.48;13.98;;;;;;;6.10;63.99;94058.16;5007038;28;20045;-75
2023/04/09 04:49:02;;;;;;;26.45;19.00;;;;;;;6.03;64.54;94037.34;5009896;28;20066;-75
2023/04/09 04:51:30;;;;;;;29.75;21.15;;;;;;;6.21;64.60;94047.25;5006889;28;20052;-77
2023/04/09 04:53:56;;;;;;;36.75;23.85;;;;;;;6.25;64.72;94044.84;5008378;28;20038;-75
2023/04/09 04:56:21;;;;;;;37.17;23.27;;;;;;;6.21;65.54;94043.81;5008443;28;20045;-75
2023/04/09 04:58:46;;;;;;;27.05;19.85;;;;;;;6.19;65.78;94061.78;5009254;28;20033;-75
2023/04/09 05:01:12;;;;;;;25.77;18.48;;;;;;;5.84;66.62;94018.00;5008075;28;20028;-74
2023/04/09 05:03:37;;;;;;;25.83;19.08;;;;;;;6.05;67.64;94055.56;5007818;28;20033;-75
2023/04/09 05:06:03;;;;;;;28.52;21.70;;;;;;;5.85;68.16;94038.84;5002466;28;20042;-75
2023/04/09 05:08:29;;;;;;;30.80;21.45;;;;;;;5.52;69.96;94042.28;4987612;28;20041;-76
2023/04/09 05:10:57;;;;;;;27.15;20.77;;;;;;;5.98;69.32;94048.75;4990063;28;20069;-75
2023/04/09 05:13:23;;;;;;;28.35;19.92;;;;;;;5.92;69.84;94051.72;4989887;28;20054;-75
2023/04/09 05:15:48;;;;;;;29.77;21.30;;;;;;;5.99;70.04;94058.25;5008818;28;20017;-74
2023/04/09 05:18:13;;;;;;;28.17;20.20;;;;;;;5.74;71.47;94061.09;5007989;28;20033;-76
2023/04/09 05:20:39;;;;;;;34.35;23.08;;;;;;;4.94;74.48;94042.09;5006841;28;20168;-77
2023/04/09 05:23:05;;;;;;;35.05;23.40;;;;;;;4.85;76.15;94070.09;5006778;28;20658;-77
2023/04/09 05:25:30;;;;;;;35.47;24.13;;;;;;;4.50;77.99;94063.09;5009136;28;20571;-77
2023/04/09 05:27:56;;;;;;;33.85;22.52;;;;;;;4.08;78.04;93992.41;5005810;28;20472;-74
2023/04/09 05:30:21;;;;;;;34.08;23.40;;;;;;;4.17;78.49;94026.84;5008179;28;20112;-77
2023/04/09 05:32:46;;;;;;;41.08;24.35;;;;;;;3.97;80.12;94047.94;5007428;28;20030;-75
2023/04/09 05:35:12;;;;;;;42.22;23.65;;;;;;;3.81;80.32;94050.63;5008143;28;20033;-77
2023/04/09 05:37:37;;;;;;;36.72;24.05;;;;;;;3.61;80.81;94062.97;5006988;28;20030;-76
2023/04/09 05:40:03;;;;;;;42.30;23.00;;;;;;;3.47;82.53;94061.94;5007080;28;20498;-77
2023/04/09 05:42:28;;;;;;;35.78;22.60;;;;;;;3.49;82.95;94073.75;5008502;28;20017;-76
2023/04/09 05:44:54;;;;;;;37.88;23.13;;;;;;;3.45;81.99;94050.88;5004014;28;20547;-78
2023/04/09 05:47:20;;;;;;;38.35;22.42;;;;;;;3.26;82.77;94047.97;5007538;28;20034;-75
2023/04/09 05:49:45;;;;;;;36.08;22.23;;;;;;;3.30;83.72;94055.06;5006692;28;20412;-76
2023/04/09 05:52:10;;;;;;;37.33;22.35;;;;;;;3.24;83.20;94024.56;5007593;28;20120;-76
2023/04/09 05:54:36;;;;;;;39.85;22.95;;;;;;;3.64;83.40;94075.59;5007635;28;20026;-74
2023/04/09 05:57:01;;;;;;;33.60;20.48;;;;;;;3.70;82.70;94064.03;5005603;28;20069;-76
2023/04/09 05:59:27;;;;;;;36.90;21.83;;;;;;;3.59;82.85;94054.56;5006648;28;20136;-77
2023/04/09 06:01:52;;;;;;;41.03;21.92;;;;;;;3.98;82.03;94068.75;5005976;28;20168;-76
2023/04/09 06:04:17;;;;;;;31.85;20.20;;;;;;;4.24;81.20;94058.97;5005873;28;20485;-77
2023/04/09 06:06:43;;;;;;;36.67;21.23;;;;;;;4.28;80.92;94052.09;5007905;28;20033;-76
2023/04/09 06:09:08;;;;;;;35.03;22.65;;;;;;;4.35;80.40;94055.28;5007034;28;20041;-76
2023/04/09 06:11:34;;;;;;;31.85;20.92;;;;;;;4.17;80.11;94055.81;5005318;28;20037;-78
2023/04/09 06:13:59;;;;;;;31.15;20.52;;;;;;;4.16;79.51;94068.19;5005694;28;20041;-77
2023/04/09 06:16:25;;;;;;;31.40;20.48;;;;;;;4.22;80.01;94067.13;5006569;28;20346;-75
2023/04/09 06:18:53;;;;;;;31.83;19.92;;;;;;;4.21;79.75;94049.72;5005375;28;20018;-75
2023/04/09 06:21:19;;;;;;;32.30;20.35;;;;;;;4.23;78.92;94063.44;5008146;28;20037;-75
2023/04/09 06:23:44;;;;;;;30.42;19.25;;;;;;;4.16;78.77;94041.84;5006877;28;20041;-74
2023/04/09 06:26:10;;;;;;;28.75;18.95;;;;;;;4.09;78.68;94070.31;5006213;28;20076;-76
2023/04/09 06:28:35;;;;;;;30.85;19.08;;;;;;;4.02;78.89;94064.50;5008325;28;20107;-76
2023/04/09 06:31:00;;;;;;;28.13;16.50;;;;;;;4.14;78.64;94049.25;5005938;28;20033;-77
2023/04/09 06:33:26;;;;;;;31.13;20.40;;;;;;;4.35;78.20;94054.50;5004248;28;20022;-75
2023/04/09 06:35:51;;;;;;;29.88;20.10;;;;;;;4.75;78.50;94070.13;5008346;28;20072;-75
2023/04/09 06:38:17;;;;;;;28.13;18.52;;;;;;;4.77;77.57;94070.66;5005646;28;20593;-75
2023/04/09 06:40:43;;;;;;;24.60;16.45;;;;;;;4.91;76.43;94074.28;5005275;28;20057;-75
2023/04/09 06:43:09;;;;;;;25.52;17.27;;;;;;;5.17;75.45;94055.69;5007049;28;20038;-75
2023/04/09 06:45:36;;;;;;;26.40;18.08;;;;;;;5.35;73.50;94071.66;5006006;28;20020;-74
2023/04/09 06:48:02;;;;;;;26.92;16.52;;;;;;;5.24;72.69;94070.16;5007031;28;20092;-76
2023/04/09 06:50:27;;;;;;;24.80;16.50;;;;;;;5.37;73.23;94081.94;5005596;28;20065;-75
2023/04/09 06:52:54;;;;;;;30.48;18.85;;;;;;;5.49;73.01;94069.97;5008221;28;20045;-76
2023/04/09 06:55:19;;;;;;;29.50;17.90;;;;;;;5.44;72.83;94061.31;5002409;28;20113;-76
2023/04/09 06:57:45;;;;;;;28.70;17.52;;;;;;;5.35;72.01;94066.38;5007754;28;20377;-76
2023/04/09 07:00:11;;;;;;;27.88;16.00;;;;;;;5.38;72.69;94072.97;5004854;28;20044;-74
2023/04/09 07:02:36;;;;;;;62.42;18.48;;;;;;;5.63;72.48;94075.41;5007418;28;20518;-75
2023/04/09 07:05:03;;;;;;;23.08;16.17;;;;;;;5.63;70.60;94080.69;5003085;28;20038;-75
2023/04/09 07:07:28;;;;;;;24.75;14.40;;;;;;;5.68;68.51;94088.56;5006364;28;20110;-75
2023/04/09 07:09:54;;;;;;;24.92;16.48;;;;;;;5.92;68.62;94073.59;5005623;28;20598;-75
2023/04/09 07:12:34;;;;;;;22.27;14.48;;;;;;;6.00;68.44;94077.50;5008910;28;20040;-75
2023/04/09 07:15:04;;;;;;;18.60;13.10;;;;;;;6.05;69.22;94080.13;5003789;28;20065;-75
2023/04/09 07:17:30;;;;;;;18.77;13.98;;;;;;;5.91;68.61;94058.84;5006495;28;20992;-76
2023/04/09 07:19:56;;;;;;;19.75;14.20;;;;;;;5.80;68.25;94067.91;5004392;28;20042;-76
2023/04/09 07:22:22;;;;;;;18.90;15.07;;;;;;;5.90;68.36;94069.69;5005138;28;20033;-75
2023/04/09 07:24:54;;;;;;;22.08;14.30;;;;;;;6.16;68.24;94065.00;5005689;28;20388;-75
2023/04/09 07:27:24;;;;;;;19.48;13.30;;;;;;;6.24;67.94;94043.25;5004795;28;20033;-76
2023/04/09 07:29:50;;;;;;;18.30;12.45;;;;;;;6.18;64.03;94047.78;5005972;28;20087;-77
2023/04/09 07:32:16;;;;;;;15.98;12.73;;;;;;;6.04;63.69;94057.41;5006317;28;20037;-76
2023/04/09 07:34:44;;;;;;;17.10;11.93;;;;;;;6.31;63.66;94078.06;5005782;28;20380;-75
2023/04/09 07:37:10;;;;;;;16.85;12.73;;;;;;;5.45;64.11;93974.00;5004831;28;20022;-75
2023/04/09 07:39:36;;;;;;;16.42;12.70;;;;;;;5.94;65.40;94055.66;5005112;28;20461;-76
2023/04/09 07:42:03;;;;;;;18.63;13.35;;;;;;;6.21;65.18;94078.16;5006444;28;20128;-76
2023/04/09 07:44:29;;;;;;;21.27;13.52;;;;;;;6.32;66.35;94074.31;5007316;28;20559;-76
2023/04/09 07:46:54;;;;;;;16.45;12.32;;;;;;;6.07;66.35;94054.19;5005160;28;20042;-75
2023/04/09 07:49:20;;;;;;;16.27;12.63;;;;;;;5.82;66.65;94057.09;5005937;28;20050;-75
2023/04/09 07:51:46;;;;;;;20.48;12.50;;;;;;;6.02;67.52;94084.06;5004369;28;20484;-76
2023/04/09 07:54:11;;;;;;;16.88;13.27;;;;;;;5.86;67.44;94098.50;5005643;28;20037;-75
2023/04/09 07:56:37;;;;;;;17.27;12.40;;;;;;;5.67;68.01;94071.19;5005974;28;20399;-76
2023/04/09 07:59:02;;;;;;;18.02;12.75;;;;;;;5.34;68.87;94066.66;5007157;28;20042;-76
2023/04/09 08:01:27;;;;;;;28.88;15.05;;;;;;;5.10;69.31;94029.63;5004155;28;20045;-75
2023/04/09 08:03:53;;;;;;;18.90;13.77;;;;;;;5.30;69.74;94076.19;5006735;28;20041;-75
2023/04/09 08:06:18;;;;;;;19.73;13.52;;;;;;;5.40;69.50;94103.28;5006149;28;20038;-75
2023/04/09 08:08:44;;;;;;;18.02;12.77;;;;;;;5.32;69.63;94074.88;5005797;28;20527;-75
2023/04/09 08:11:09;;;;;;;19.33;13.57;;;;;;;5.51;69.40;94072.34;5005321;28;20034;-75
2023/04/09 08:13:35;;;;;;;21.55;13.57;;;;;;;5.62;68.00;94100.25;5004717;28;20116;-75
2023/04/09 08:16:01;;;;;;;17.17;12.05;;;;;;;5.83;67.53;94101.66;5004934;28;20109;-76
2023/04/09 08:18:27;;;;;;;16.58;12.20;;;;;;;5.81;66.91;94085.34;5005527;28;20033;-75
2023/04/09 08:20:52;;;;;;;15.93;12.88;;;;;;;5.83;66.85;94087.69;5003180;28;20036;-74
2023/04/09 08:23:17;;;;;;;17.30;12.32;;;;;;;5.70;66.51;94081.19;5010378;28;20060;-75
2023/04/09 08:25:43;;;;;;;13.35;10.90;;;;;;;5.51;66.31;94082.91;5005186;28;20501;-75
2023/04/09 08:28:08;;;;;;;19.42;13.05;;;;;;;5.37;67.22;94074.03;5012745;28;20546;-75
2023/04/09 08:30:34;;;;;;;26.23;16.92;;;;;;;5.53;68.51;94086.03;5010712;28;20028;-75
2023/04/09 08:33:00;;;;;;;16.40;12.77;;;;;;;5.49;67.38;94069.19;5009663;28;20080;-75
2023/04/09 08:35:27;;;;;;;17.95;12.02;;;;;;;5.46;68.22;94077.66;5007019;28;20262;-75
2023/04/09 08:37:55;;;;;;;16.73;11.98;;;;;;;5.38;68.18;94094.84;5013920;28;20498;-75
2023/04/09 08:40:20;;;;;;;19.50;12.35;;;;;;;5.40;68.02;94091.94;5009083;28;20038;-75
2023/04/09 08:42:50;;;;;;;18.75;13.07;;;;;;;5.25;69.19;94095.47;5008318;28;20107;-75
2023/04/09 08:45:15;;;;;;;21.08;13.57;;;;;;;5.15;69.53;94053.31;5006336;28;20029;-76
2023/04/09 08:47:43;;;;;;;20.92;13.32;;;;;;;5.30;68.56;94041.91;5007680;28;20037;-75
2023/04/09 08:50:09;;;;;;;19.52;14.15;;;;;;;5.57;70.24;94081.81;5005706;28;20026;-76
2023/04/09 08:52:36;;;;;;;21.25;14.05;;;;;;;5.51;68.63;94077.63;5009218;28;20522;-76
2023/04/09 08:55:01;;;;;;;22.08;14.05;;;;;;;5.64;68.39;94081.50;5006658;28;20638;-75
2023/04/09 08:57:27;;;;;;;18.05;12.93;;;;;;;5.16;68.95;94075.22;5010353;28;20143;-75
2023/04/09 08:59:52;;;;;;;21.02;14.57;;;;;;;5.44;68.96;94082.41;5007739;28;20483;-75
2023/04/09 09:02:17;;;;;;;20.63;14.35;;;;;;;5.47;69.39;94087.16;5007807;28;20448;-75
2023/04/09 09:04:47;;;;;;;24.60;15.50;;;;;;;5.39;69.40;94082.44;5008150;28;20527;-76
2023/04/09 09:07:13;;;;;;;21.65;15.15;;;;;;;5.01;69.76;94079.50;5007436;28;20096;-77
2023/04/09 09:09:52;;;;;;;21.88;15.00;;;;;;;5.36;69.71;94077.72;5006006;28;20054;-76
2023/04/09 09:12:29;;;;;;;26.70;15.90;;;;;;;5.16;69.10;94077.84;5016368;28;20033;-75
2023/04/09 09:14:55;;;;;;;23.13;15.73;;;;;;;5.22;69.70;94074.91;5006475;28;20531;-75
2023/04/09 09:17:20;;;;;;;19.50;15.30;;;;;;;5.34;70.01;94079.84;5007706;28;20062;-77
2023/04/09 09:19:45;;;;;;;23.40;13.70;;;;;;;5.72;69.37;94073.78;5007291;28;20615;-76
2023/04/09 09:22:12;;;;;;;21.75;14.07;;;;;;;5.93;67.13;94071.75;5008611;28;20061;-75
2023/04/09 09:24:48;;;;;;;16.83;12.88;;;;;;;5.92;66.36;94067.56;5007614;28;20061;-76
2023/04/09 09:27:35;;;;;;;17.38;12.07;;;;;;;5.68;66.07;94077.22;5007239;28;20037;-75
2023/04/09 09:30:04;;;;;;;19.98;13.38;;;;;;;5.40;66.71;94049.75;5004086;28;20096;-77
2023/04/09 09:32:31;;;;;;;16.38;12.45;;;;;;;5.62;66.06;94063.31;5008562;28;20042;-75
2023/04/09 09:35:04;;;;;;;22.25;12.85;;;;;;;5.57;66.12;94060.72;5005516;28;20088;-76
2023/04/09 09:37:30;;;;;;;17.95;11.38;;;;;;;5.64;66.02;94047.97;5006302;28;20048;-75
2023/04/09 09:39:56;;;;;;;18.30;11.93;;;;;;;5.76;64.65;94032.59;5014884;28;20029;-75
2023/04/09 09:42:22;;;;;;;17.17;13.10;;;;;;;5.96;64.47;94048.25;5005533;28;20048;-76
2023/04/09 09:44:49;;;;;;;17.52;11.63;;;;;;;5.97;64.91;94043.72;5006788;28;20029;-75
2023/04/09 09:47:18;;;;;;;19.63;13.52;;;;;;;6.33;64.26;94049.50;5000070;28;20042;-76
2023/04/09 09:49:43;;;;;;;17.67;13.50;;;;;;;6.41;62.81;94035.66;4987986;28;20030;-75
2023/04/09 09:52:09;;;;;;;18.05;13.48;;;;;;;6.33;62.59;94015.16;4985717;28;20083;-76
2023/04/09 09:54:43;;;;;;;17.25;13.07;;;;;;;6.33;62.69;94020.44;4989248;28;20049;-76
2023/04/09 09:57:12;;;;;;;15.40;11.98;;;;;;;6.45;61.97;94028.75;4986178;28;20133;-75
2023/04/09 09:59:42;;;;;;;16.88;12.10;;;;;;;6.47;61.02;94031.91;4985756;28;20038;-74
2023/04/09 10:02:31;;;;;;;16.52;12.60;;;;;;;6.52;61.17;94038.97;4987190;28;20030;-76
2023/04/09 10:05:00;;;;;;;14.45;10.82;;;;;;;6.50;60.98;94041.91;4987544;28;20076;-75
2023/04/09 10:07:26;;;;;;;15.98;12.23;;;;;;;6.53;60.84;94027.34;4987347;28;20796;-75
2023/04/09 10:09:54;;;;;;;15.38;11.85;;;;;;;6.88;60.09;94042.00;4985827;28;20061;-76
2023/04/09 10:12:24;;;;;;;16.20;12.23;;;;;;;6.89;59.31;94051.50;4985219;28;20511;-75
2023/04/09 10:14:59;;;;;;;15.32;11.82;;;;;;;6.59;59.93;94013.81;4987427;28;20034;-76
2023/04/09 10:17:25;;;;;;;14.95;11.32;;;;;;;7.03;59.02;94047.09;4988917;28;20076;-75
2023/04/09 10:20:11;;;;;;;15.25;12.32;;;;;;;6.93;58.67;94041.94;4986502;28;20037;-76
2023/04/09 10:22:37;;;;;;;17.42;13.32;;;;;;;7.06;58.01;94030.63;4992369;28;20034;-76
2023/04/09 10:25:05;;;;;;;15.48;12.75;;;;;;;7.04;58.53;94030.16;4984753;28;20459;-76
2023/04/09 10:27:31;;;;;;;16.45;12.10;;;;;;;7.42;57.11;94037.00;4995951;28;20053;-76
2023/04/09 10:29:59;;;;;;;14.45;10.90;;;;;;;7.09;56.41;94028.19;4987465;28;20511;-76
2023/04/09 10:32:26;;;;;;;13.13;10.57;;;;;;;7.11;56.38;94046.44;4987249;28;20031;-76
2023/04/09 10:34:56;;;;;;;14.52;10.48;;;;;;;7.41;55.30;94039.94;4983039;28;20027;-76
2023/04/09 10:37:26;;;;;;;13.82;10.85;;;;;;;7.49;54.87;94018.91;4986822;28;20035;-75
2023/04/09 10:39:53;;;;;;;11.38;9.25;;;;;;;7.43;53.93;94020.06;4987006;28;20371;-75
2023/04/09 10:42:23;;;;;;;14.60;10.98;;;;;;;7.70;52.76;94022.81;4984601;28;20076;-75
2023/04/09 10:45:21;;;;;;;11.30;9.98;;;;;;;7.84;53.01;94009.63;4994552;28;20153;-75
2023/04/09 10:47:52;;;;;;;12.25;9.63;;;;;;;7.79;51.73;94015.00;5000706;28;20038;-77
2023/04/09 10:50:24;;;;;;;11.30;9.82;;;;;;;7.81;51.64;94002.28;5004366;28;20037;-76
2023/04/09 10:52:58;;;;;;;9.82;8.43;;;;;;;7.98;50.83;94004.34;5006225;28;20034;-75
2023/04/09 10:55:40;;;;;;;10.10;8.80;;;;;;;8.34;52.75;94021.19;5005727;28;20037;-76
2023/04/09 10:58:10;;;;;;;13.55;8.77;;;;;;;8.43;50.08;94014.13;5005499;28;20056;-77
2023/04/09 11:00:38;;;;;;;11.82;9.40;;;;;;;8.52;50.13;94022.19;5006013;28;20064;-76
2023/04/09 11:03:19;;;;;;;12.50;9.15;;;;;;;8.79;50.35;94018.75;5004295;28;20099;-77
2023/04/09 11:05:49;;;;;;;15.00;10.45;;;;;;;9.17;49.81;94006.81;5005650;28;20103;-75
2023/04/09 11:08:15;;;;;;;10.57;9.23;;;;;;;8.73;49.33;94010.09;5003845;28;20046;-76
2023/04/09 11:10:46;;;;;;;12.75;9.88;;;;;;;8.92;50.60;93999.38;5007054;28;20042;-76
2023/04/09 11:13:16;;;;;;;9.88;8.32;;;;;;;8.77;49.67;93989.06;5005039;28;20031;-75
2023/04/09 11:15:43;;;;;;;10.32;8.82;;;;;;;8.76;48.88;94000.75;5006822;28;20068;-77
2023/04/09 11:18:08;;;;;;;10.63;8.77;;;;;;;9.15;48.58;93998.34;5005344;28;20029;-76
2023/04/09 11:20:34;;;;;;;10.20;9.02;;;;;;;9.44;48.26;93998.75;5003471;28;20530;-77
2023/04/09 11:23:01;;;;;;;9.77;8.02;;;;;;;9.77;48.71;94009.94;5006305;28;20087;-77
2023/04/09 11:25:28;;;;;;;9.15;7.78;;;;;;;9.24;47.17;93999.22;5007028;28;20048;-77
2023/04/09 11:27:54;;;;;;;12.38;9.13;;;;;;;9.38;47.01;94007.16;5006368;28;20516;-76